Time;durP1;ratioP1;P1;durP2;ratioP2;P2;SDS_P1;SDS_P2;PMS_P1;PMS_P2;Temp;Humidity;BMP_temperature;BMP_pressure;BME280_temperature;BME280_humidity;BME280_pressure;Samples;Min_cycle;Max_cycle;Signal;HPM_P1;HPM_P2
2022/05/25 00:01:54;;;;;;;;;;;;;;;27.49;39.71;93946.41;5051598;28;9269;-60
2022/05/25 00:04:22;;;;;;;;;;;;;;;27.47;40.56;93946.94;5039894;28;9362;-60
2022/05/25 00:06:49;;;;;;;;;;;;;;;27.47;40.58;93941.41;5038921;28;9201;-60
2022/05/25 00:09:25;;;;;;;;;;;;;;;27.43;40.57;93938.22;5044350;28;8400;-60
2022/05/25 00:11:51;;;;;;;;;;;;;;;27.45;40.59;93945.97;5049667;28;7325;-60
2022/05/25 00:14:21;;;;;;;;;;;;;;;27.43;40.58;93943.75;5043904;28;7142;-60
2022/05/25 00:16:49;;;;;;;;;;;;;;;27.41;40.10;93943.53;5043607;28;7348;-60
2022/05/25 00:22:16;;;;;;;;;;;;;;;27.40;40.47;93942.06;5050600;28;9075;-59
2022/05/25 00:24:43;;;;;;;;;;;;;;;27.40;40.00;93933.78;5033941;28;7382;-60
2022/05/25 00:27:18;;;;;;;;;;;;;;;27.37;40.47;93934.09;5055434;28;7110;-60
2022/05/25 00:29:45;;;;;;;;;;;;;;;27.34;40.65;93944.16;5037078;28;9358;-60
2022/05/25 00:32:45;;;;;;;;;;;;;;;27.32;40.58;93946.72;5049567;28;7958;-60
2022/05/25 00:35:25;;;;;;;;;;;;;;;27.34;41.00;93946.91;4989360;28;7347;-60
2022/05/25 00:37:52;;;;;;;;;;;;;;;27.36;40.65;93949.91;4975335;28;7262;-60
2022/05/25 00:40:29;;;;;;;;;;;;;;;27.36;40.91;93938.88;4990979;28;9080;-60
2022/05/25 00:43:08;;;;;;;;;;;;;;;27.38;40.23;93941.13;5000792;28;8604;-60
2022/05/25 00:45:59;;;;;;;;;;;;;;;27.36;40.94;93949.19;5001859;28;9151;-60
2022/05/25 00:49:13;;;;;;;;;;;;;;;27.36;40.62;93938.88;4983226;28;9156;-60
2022/05/25 00:52:00;;;;;;;;;;;;;;;27.34;40.91;93941.41;4953133;28;9183;-60
2022/05/25 00:55:04;;;;;;;;;;;;;;;27.36;40.30;93949.91;4970904;28;7025;-60
2022/05/25 00:58:00;;;;;;;;;;;;;;;27.33;40.69;93956.50;4964038;28;7025;-60
2022/05/25 01:00:42;;;;;;;;;;;;;;;27.35;40.65;93955.94;4952659;28;9249;-60
2022/05/25 01:03:21;;;;;;;;;;;;;;;27.31;40.65;93956.28;4950813;28;7862;-60
2022/05/25 01:06:06;;;;;;;;;;;;;;;27.30;40.36;93963.06;4951998;28;9388;-60
2022/05/25 01:09:19;;;;;;;;;;;;;;;27.28;40.75;93971.16;4944589;28;9036;-60
2022/05/25 01:15:28;;;;;;;;;;;;;;;27.32;40.44;93959.78;4922264;29;8504;-60
2022/05/25 01:18:27;;;;;;;;;;;;;;;27.30;40.85;93968.59;4923164;29;7915;-61
2022/05/25 01:21:12;;;;;;;;;;;;;;;27.30;40.42;93967.84;4934113;29;9087;-60
2022/05/25 01:23:54;;;;;;;;;;;;;;;27.29;40.64;93967.13;4910655;29;9484;-60
2022/05/25 01:26:47;;;;;;;;;;;;;;;27.28;40.61;93973.91;4895769;29;7458;-60
2022/05/25 01:29:22;;;;;;;;;;;;;;;27.27;40.28;93968.94;4906717;29;7328;-60
2022/05/25 01:32:27;;;;;;;;;;;;;;;27.28;40.36;93973.16;4906268;29;7804;-60
2022/05/25 01:35:30;;;;;;;;;;;;;;;27.28;40.85;93973.16;4891739;29;7479;-60
2022/05/25 01:38:08;;;;;;;;;;;;;;;27.27;40.52;93977.97;4933229;28;7425;-60
2022/05/25 01:40:56;;;;;;;;;;;;;;;27.26;40.11;93979.22;4937250;28;9040;-60
2022/05/25 01:43:34;;;;;;;;;;;;;;;27.24;40.07;93981.03;4946738;28;7240;-61
2022/05/25 01:46:12;;;;;;;;;;;;;;;27.25;40.72;93985.28;4951649;28;7571;-60
2022/05/25 01:48:42;;;;;;;;;;;;;;;27.21;40.42;93985.59;4977204;28;9164;-61
2022/05/25 01:51:46;;;;;;;;;;;;;;;27.21;40.72;93982.81;4970520;28;7289;-60
2022/05/25 01:54:19;;;;;;;;;;;;;;;27.23;40.24;93985.06;4933662;29;7294;-60
2022/05/25 01:56:53;;;;;;;;;;;;;;;27.22;40.79;93978.81;4923678;29;9045;-60
2022/05/25 01:59:39;;;;;;;;;;;;;;;27.24;40.57;93987.28;4917360;29;9555;-60
2022/05/25 02:04:57;;;;;;;;;;;;;;;27.21;40.42;93982.81;4932423;29;6966;-60
2022/05/25 02:07:29;;;;;;;;;;;;;;;27.23;40.84;93994.06;4932079;28;7026;-61
2022/05/25 02:10:01;;;;;;;;;;;;;;;27.23;40.34;94002.38;4933707;29;8413;-61
2022/05/25 02:12:37;;;;;;;;;;;;;;;27.21;40.58;93998.66;4971545;28;7249;-60
2022/05/25 02:15:23;;;;;;;;;;;;;;;27.21;40.01;93998.66;4963750;28;7759;-60
2022/05/25 02:18:21;;;;;;;;;;;;;;;27.23;40.33;93996.84;4964326;28;9084;-60
2022/05/25 02:20:57;;;;;;;;;;;;;;;27.23;40.25;93988.56;4967066;28;7064;-60
2022/05/25 02:23:38;;;;;;;;;;;;;;;27.22;40.18;93995.38;4969878;28;9143;-60
2022/05/25 02:26:19;;;;;;;;;;;;;;;27.21;40.80;93995.91;4961219;28;9519;-60
2022/05/25 02:29:10;;;;;;;;;;;;;;;27.21;40.46;94004.91;4975695;28;7263;-61
2022/05/25 02:31:46;;;;;;;;;;;;;;;27.20;39.99;94000.69;5039364;28;9133;-60
2022/05/25 02:34:17;;;;;;;;;;;;;;;27.22;40.64;94006.41;5050307;28;9405;-60
2022/05/25 02:36:48;;;;;;;;;;;;;;;27.20;40.52;94013.72;5038884;28;7209;-60
2022/05/25 02:39:16;;;;;;;;;;;;;;;27.20;39.81;94014.47;5065562;28;6992;-59
2022/05/25 02:42:13;;;;;;;;;;;;;;;27.19;40.11;94015.00;5035914;28;9612;-60
2022/05/25 02:44:51;;;;;;;;;;;;;;;27.19;40.19;94009.47;5002044;28;7015;-59
2022/05/25 02:47:26;;;;;;;;;;;;;;;27.18;40.08;94010.75;4999969;28;7614;-59
2022/05/25 02:50:03;;;;;;;;;;;;;;;27.19;39.97;94020.50;4984133;28;7544;-60
2022/05/25 02:52:30;;;;;;;;;;;;;;;27.18;40.21;94017.03;4985783;28;8732;-59
2022/05/25 02:55:00;;;;;;;;;;;;;;;27.17;40.29;94020.31;4993391;28;7241;-59
2022/05/25 02:57:45;;;;;;;;;;;;;;;27.21;40.11;94031.81;4999917;28;7387;-59
2022/05/25 03:00:39;;;;;;;;;;;;;;;27.19;40.33;94029.56;4984407;28;7286;-59
2022/05/25 03:03:07;;;;;;;;;;;;;;;27.16;40.58;94027.13;4999332;28;9639;-59
2022/05/25 03:05:39;;;;;;;;;;;;;;;27.16;40.21;94035.41;4973074;28;7957;-59
2022/05/25 03:08:07;;;;;;;;;;;;;;;27.14;39.90;94018.63;4985473;28;7191;-60
2022/05/25 03:10:36;;;;;;;;;;;;;;;27.15;39.94;94031.88;4979178;28;8726;-59
2022/05/25 03:13:07;;;;;;;;;;;;;;;27.15;40.55;94033.91;4971325;28;9086;-59
2022/05/25 03:15:33;;;;;;;;;;;;;;;27.15;39.79;94031.88;4988442;28;7062;-60
2022/05/25 03:18:13;;;;;;;;;;;;;;;27.16;39.79;94032.63;4984616;28;8790;-59
2022/05/25 03:20:42;;;;;;;;;;;;;;;27.14;40.05;94027.66;5005251;28;10037;-58
2022/05/25 03:23:08;;;;;;;;;;;;;;;27.15;40.65;94023.59;5033926;28;7005;-59
2022/05/25 03:25:34;;;;;;;;;;;;;;;27.13;40.33;94030.94;5059664;28;7190;-59
2022/05/25 03:28:03;;;;;;;;;;;;;;;27.13;40.27;94036.44;5058207;28;7233;-60
2022/05/25 03:30:31;;;;;;;;;;;;;;;27.14;40.70;94038.69;5058065;28;7315;-60
2022/05/25 03:33:29;;;;;;;;;;;;;;;27.12;40.67;94038.47;5039921;28;9875;-59
2022/05/25 03:35:56;;;;;;;;;;;;;;;27.12;40.44;94049.50;4964192;28;7208;-59
2022/05/25 03:38:33;;;;;;;;;;;;;;;27.11;40.33;94044.50;4975732;28;7156;-59
2022/05/25 03:41:17;;;;;;;;;;;;;;;27.10;40.12;94046.53;4988955;28;9630;-59
2022/05/25 03:43:52;;;;;;;;;;;;;;;27.09;40.53;94045.06;4989090;28;7266;-59
2022/05/25 03:46:19;;;;;;;;;;;;;;;27.11;40.15;94053.53;4988962;28;7244;-60
2022/05/25 03:48:58;;;;;;;;;;;;;;;27.12;39.83;94048.78;4988202;28;7491;-60
2022/05/25 03:51:24;;;;;;;;;;;;;;;27.13;40.20;94053.75;4986754;28;7287;-60
2022/05/25 03:53:51;;;;;;;;;;;;;;;27.11;40.24;94053.53;4985395;28;7278;-60
2022/05/25 03:56:21;;;;;;;;;;;;;;;27.13;40.22;94056.53;4980160;28;9383;-60
2022/05/25 03:58:48;;;;;;;;;;;;;;;27.13;40.05;94064.81;4983833;28;8618;-60
2022/05/25 04:01:23;;;;;;;;;;;;;;;27.10;40.40;94057.56;4988451;28;7001;-60
2022/05/25 04:03:49;;;;;;;;;;;;;;;27.11;40.40;94064.59;4988002;28;7054;-60
2022/05/25 04:06:15;;;;;;;;;;;;;;;27.10;39.70;94059.59;4988397;28;9124;-60
2022/05/25 04:08:41;;;;;;;;;;;;;;;27.10;39.84;94059.59;4980945;28;9065;-60
2022/05/25 04:11:07;;;;;;;;;;;;;;;27.11;40.09;94061.06;4983867;28;8215;-60
2022/05/25 04:13:34;;;;;;;;;;;;;;;27.08;40.47;94065.63;5044786;28;7437;-60
2022/05/25 04:16:04;;;;;;;;;;;;;;;27.06;39.72;94068.19;5047111;28;7138;-60
2022/05/25 04:18:30;;;;;;;;;;;;;;;27.06;39.73;94065.41;5049173;28;9167;-60
2022/05/25 04:20:56;;;;;;;;;;;;;;;27.06;40.48;94070.94;5055148;28;7046;-60
2022/05/25 04:23:26;;;;;;;;;;;;;;;27.05;40.47;94091.56;5034914;28;9146;-60
2022/05/25 04:25:53;;;;;;;;;;;;;;;27.06;40.36;94097.78;5049529;28;7143;-60
2022/05/25 04:28:20;;;;;;;;;;;;;;;27.05;40.44;94099.84;5050776;28;9314;-59
2022/05/25 04:30:46;;;;;;;;;;;;;;;27.08;39.67;94111.84;5067219;28;6992;-60
2022/05/25 04:33:40;;;;;;;;;;;;;;;27.05;40.37;94090.81;5053203;28;9472;-60
2022/05/25 04:36:06;;;;;;;;;;;;;;;27.03;39.81;94091.34;5018589;28;9106;-61
2022/05/25 04:38:33;;;;;;;;;;;;;;;27.04;40.07;94092.81;5018737;28;9401;-60
2022/05/25 04:40:59;;;;;;;;;;;;;;;27.03;39.99;94085.06;5014404;28;6859;-60
2022/05/25 04:43:43;;;;;;;;;;;;;;;27.02;39.73;94080.81;5030015;28;9504;-60
2022/05/25 04:46:13;;;;;;;;;;;;;;;27.01;39.64;94091.13;5012789;28;7638;-60
2022/05/25 04:48:44;;;;;;;;;;;;;;;27.03;39.88;94096.88;5026089;28;9376;-60
2022/05/25 04:51:12;;;;;;;;;;;;;;;27.03;40.14;94098.88;5025649;28;7626;-60
2022/05/25 04:53:38;;;;;;;;;;;;;;;26.99;40.28;94104.69;5004235;28;9459;-60
2022/05/25 04:58:50;;;;;;;;;;;;;;;27.02;40.34;94117.44;5015840;28;9136;-61
2022/05/25 05:01:19;;;;;;;;;;;;;;;27.02;40.57;94117.44;5026673;28;7445;-60
2022/05/25 05:03:47;;;;;;;;;;;;;;;27.00;39.91;94122.75;5009175;28;6992;-61
2022/05/25 05:06:14;;;;;;;;;;;;;;;27.00;39.78;94119.22;5028224;28;7063;-61
2022/05/25 05:08:42;;;;;;;;;;;;;;;27.00;40.32;94116.47;5013142;28;9643;-60
2022/05/25 05:11:14;;;;;;;;;;;;;;;27.02;39.89;94119.44;5007035;28;8923;-60
2022/05/25 05:13:45;;;;;;;;;;;;;;;27.03;40.15;94113.44;5049035;28;7212;-60
2022/05/25 05:16:14;;;;;;;;;;;;;;;27.01;39.87;94121.50;5064022;28;7232;-60
2022/05/25 05:18:43;;;;;;;;;;;;;;;27.00;39.93;94114.47;5041795;28;7055;-60
2022/05/25 05:21:09;;;;;;;;;;;;;;;27.02;39.84;94122.97;5052923;28;9166;-60
2022/05/25 05:23:38;;;;;;;;;;;;;;;27.00;39.45;94122.75;5057380;28;9386;-60
2022/05/25 05:26:04;;;;;;;;;;;;;;;26.97;39.72;94126.53;5051468;28;7241;-60
2022/05/25 05:28:41;;;;;;;;;;;;;;;26.96;40.19;94135.38;5055356;28;9035;-60
2022/05/25 05:31:14;;;;;;;;;;;;;;;26.94;39.95;94135.91;5057975;28;9157;-59
2022/05/25 05:33:40;;;;;;;;;;;;;;;26.94;40.05;94141.41;5058111;28;9405;-59
2022/05/25 05:36:27;;;;;;;;;;;;;;;26.94;39.55;94144.19;5042210;28;8858;-59
2022/05/25 05:39:05;;;;;;;;;;;;;;;26.92;39.23;94138.44;5042900;28;7232;-60
2022/05/25 05:42:06;;;;;;;;;;;;;;;26.94;39.79;94140.66;5043543;28;7062;-60
2022/05/25 05:44:40;;;;;;;;;;;;;;;26.95;39.53;94148.41;5040262;28;7334;-60
2022/05/25 05:47:14;;;;;;;;;;;;;;;26.94;39.40;94155.22;5054975;28;9619;-60
2022/05/25 05:49:56;;;;;;;;;;;;;;;26.93;39.74;94153.72;5060192;28;9457;-59
2022/05/25 05:52:27;;;;;;;;;;;;;;;26.93;39.07;94156.47;5045718;28;7377;-60
2022/05/25 05:55:26;;;;;;;;;;;;;;;26.91;40.07;94159.00;5049669;28;6848;-59
2022/05/25 05:57:56;;;;;;;;;;;;;;;26.94;39.64;94171.03;4951022;28;9068;-60
2022/05/25 06:00:31;;;;;;;;;;;;;;;26.95;39.30;94164.97;4960234;28;7368;-61
2022/05/25 06:02:58;;;;;;;;;;;;;;;26.95;39.86;94176.00;4957403;28;7249;-60
2022/05/25 06:05:24;;;;;;;;;;;;;;;26.95;39.63;94178.78;4968990;28;7614;-60
2022/05/25 06:07:56;;;;;;;;;;;;;;;26.95;39.31;94189.09;4945659;28;9085;-59
2022/05/25 06:10:23;;;;;;;;;;;;;;;26.96;39.71;94187.81;4964354;28;6983;-60
2022/05/25 06:12:48;;;;;;;;;;;;;;;26.97;39.50;94201.06;4939535;28;8999;-60
2022/05/25 06:20:50;;;;;;;;;;;;;;;26.94;39.54;94204.91;4961826;28;6928;-60
2022/05/25 06:23:16;;;;;;;;;;;;;;;26.92;39.32;94204.69;4965982;28;9060;-59
2022/05/25 06:25:42;;;;;;;;;;;;;;;26.92;40.21;94204.69;4943692;28;7199;-61
2022/05/25 06:28:08;;;;;;;;;;;;;;;26.91;39.59;94203.19;4960232;28;8461;-60
2022/05/25 06:30:36;;;;;;;;;;;;;;;26.92;40.21;94210.19;4967133;28;8690;-58
2022/05/25 06:33:06;;;;;;;;;;;;;;;26.91;39.70;94214.22;4976590;28;7069;-60
2022/05/25 06:35:35;;;;;;;;;;;;;;;26.92;39.63;94209.44;5042108;28;9535;-59
2022/05/25 06:38:07;;;;;;;;;;;;;;;26.89;39.38;94217.50;5048243;28;7673;-59
2022/05/25 06:40:36;;;;;;;;;;;;;;;26.87;39.66;94220.03;5059041;28;8221;-59
2022/05/25 06:43:03;;;;;;;;;;;;;;;26.88;39.06;94220.78;5047388;28;7126;-60
2022/05/25 06:45:31;;;;;;;;;;;;;;;26.88;39.02;94220.78;5040349;28;7222;-61
2022/05/25 06:47:58;;;;;;;;;;;;;;;26.90;39.43;94224.50;5046877;28;7206;-60
2022/05/25 06:50:25;;;;;;;;;;;;;;;26.91;38.83;94228.00;5057158;28;8762;-59
2022/05/25 06:52:54;;;;;;;;;;;;;;;26.90;39.29;94234.81;5050335;28;7243;-59
2022/05/25 06:55:20;;;;;;;;;;;;;;;26.88;38.97;94231.84;5047628;28;9288;-59
2022/05/25 06:57:50;;;;;;;;;;;;;;;26.88;38.82;94231.84;5061390;28;7319;-60
2022/05/25 07:00:27;;;;;;;;;;;;;;;26.89;39.01;94238.84;5035053;28;7230;-61
2022/05/25 07:03:02;;;;;;;;;;;;;;;26.88;40.04;94238.09;5051794;28;7056;-59
2022/05/25 07:05:28;;;;;;;;;;;;;;;26.87;40.59;94233.09;5039118;28;9138;-60
2022/05/25 07:07:55;;;;;;;;;;;;;;;26.85;39.63;94233.63;5052347;28;7375;-59
2022/05/25 07:10:22;;;;;;;;;;;;;;;26.89;39.49;94234.06;5060634;28;9058;-59
2022/05/25 07:12:49;;;;;;;;;;;;;;;26.90;39.66;94234.81;5050913;28;9414;-60
2022/05/25 07:15:15;;;;;;;;;;;;;;;26.88;39.98;94231.84;5045822;28;8978;-60
2022/05/25 07:17:42;;;;;;;;;;;;;;;26.89;40.10;94245.09;5041701;28;7367;-60
2022/05/25 07:20:09;;;;;;;;;;;;;;;26.88;39.84;94249.13;5048306;28;9183;-60
2022/05/25 07:22:40;;;;;;;;;;;;;;;26.89;39.91;94238.84;5050041;28;9051;-61
2022/05/25 07:25:08;;;;;;;;;;;;;;;26.88;39.61;94237.34;5052464;28;7244;-61
2022/05/25 07:27:34;;;;;;;;;;;;;;;26.90;39.59;94243.09;5029498;28;9465;-60
2022/05/25 07:30:00;;;;;;;;;;;;;;;26.90;39.71;94248.63;5046079;28;7046;-61
2022/05/25 07:32:28;;;;;;;;;;;;;;;26.92;39.75;94253.59;5039297;28;7223;-59
2022/05/25 07:35:04;;;;;;;;;;;;;;;26.89;40.25;94258.91;5018517;28;7386;-60
2022/05/25 07:37:38;;;;;;;;;;;;;;;26.87;39.84;94250.41;5055082;28;8766;-60
2022/05/25 07:40:12;;;;;;;;;;;;;;;26.89;39.51;94258.91;5046279;28;7005;-60
2022/05/25 07:42:44;;;;;;;;;;;;;;;26.90;39.87;94265.91;5039434;28;6976;-60
2022/05/25 07:45:12;;;;;;;;;;;;;;;26.91;40.17;94269.41;5034558;28;7239;-61
2022/05/25 07:47:40;;;;;;;;;;;;;;;26.91;39.36;94263.88;5033212;28;7259;-60
2022/05/25 07:50:07;;;;;;;;;;;;;;;26.92;40.25;94270.16;5046264;28;7219;-60
2022/05/25 07:52:41;;;;;;;;;;;;;;;26.91;39.54;94272.16;5058175;28;7169;-60
2022/05/25 07:55:11;;;;;;;;;;;;;;;26.91;39.47;94283.22;5042895;28;9538;-60
2022/05/25 07:57:42;;;;;;;;;;;;;;;26.89;39.59;94274.72;5065458;28;6879;-60
2022/05/25 08:00:15;;;;;;;;;;;;;;;26.90;39.54;94285.22;5055756;28;7257;-60
2022/05/25 08:05:44;;;;;;;;;;;;;;;26.89;39.76;94286.50;5055716;28;7288;-60
2022/05/25 08:08:18;;;;;;;;;;;;;;;26.89;39.65;94288.50;5055489;28;9401;-60
2022/05/25 08:10:54;;;;;;;;;;;;;;;26.87;40.39;94294.56;5039285;28;7486;-60
2022/05/25 08:13:23;;;;;;;;;;;;;;;26.89;39.79;94294.03;5046400;28;7212;-60
2022/05/25 08:15:53;;;;;;;;;;;;;;;26.89;39.60;94289.25;5061499;28;7389;-61
2022/05/25 08:18:22;;;;;;;;;;;;;;;26.91;39.80;94297.00;5044735;28;8511;-60
2022/05/25 08:20:49;;;;;;;;;;;;;;;26.90;39.87;94295.53;5043744;28;7434;-60
2022/05/25 08:23:16;;;;;;;;;;;;;;;26.90;39.72;94299.03;5055988;28;6991;-60
2022/05/25 08:25:43;;;;;;;;;;;;;;;26.90;40.25;94290.00;5040814;28;9485;-60
2022/05/25 08:28:23;;;;;;;;;;;;;;;26.89;39.74;94294.03;5044679;28;7266;-60
2022/05/25 08:30:52;;;;;;;;;;;;;;;26.87;40.06;94291.03;5052353;28;9696;-59
2022/05/25 08:33:21;;;;;;;;;;;;;;;26.86;40.44;94289.56;5050589;28;8794;-60
2022/05/25 08:35:48;;;;;;;;;;;;;;;26.87;39.52;94296.56;5041723;28;9310;-61
2022/05/25 08:38:16;;;;;;;;;;;;;;;26.88;39.77;94289.78;5052132;28;7222;-60
2022/05/25 08:40:46;;;;;;;;;;;;;;;26.89;40.23;94300.31;5036611;28;7465;-59
2022/05/25 08:43:27;;;;;;;;;;;;;;;26.88;39.67;94300.84;5050725;28;9200;-60
2022/05/25 08:46:05;;;;;;;;;;;;;;;26.87;39.96;94300.09;5037539;28;9037;-60
2022/05/25 08:48:46;;;;;;;;;;;;;;;26.85;39.59;94304.63;5045250;28;7419;-60
2022/05/25 08:51:25;;;;;;;;;;;;;;;26.84;40.00;94305.88;5059577;28;7365;-60
2022/05/25 08:53:54;;;;;;;;;;;;;;;26.85;40.13;94310.16;5054044;28;7177;-60
2022/05/25 08:56:52;;;;;;;;;;;;;;;26.84;39.68;94308.63;5059671;28;7083;-60
2022/05/25 08:59:28;;;;;;;;;;;;;;;26.85;40.33;94310.91;5061201;28;7030;-59
2022/05/25 09:02:05;;;;;;;;;;;;;;;26.85;40.37;94304.63;5050059;28;8997;-60
2022/05/25 09:05:06;;;;;;;;;;;;;;;26.84;40.10;94309.38;5038961;28;7179;-60
2022/05/25 09:07:44;;;;;;;;;;;;;;;26.86;39.75;94306.84;5053571;28;7023;-60
2022/05/25 09:10:15;;;;;;;;;;;;;;;26.86;39.37;94311.66;5053631;28;7085;-59
2022/05/25 09:12:47;;;;;;;;;;;;;;;26.87;40.15;94313.88;5051579;28;7486;-60
2022/05/25 09:15:26;;;;;;;;;;;;;;;26.85;39.82;94310.16;5060512;28;7147;-60
2022/05/25 09:18:06;;;;;;;;;;;;;;;26.87;40.01;94302.84;5038548;28;7302;-60
2022/05/25 09:20:43;;;;;;;;;;;;;;;26.87;39.49;94302.84;5037293;28;7156;-60
2022/05/25 09:23:12;;;;;;;;;;;;;;;26.87;40.08;94307.59;5052171;28;7146;-60
2022/05/25 09:25:38;;;;;;;;;;;;;;;26.86;40.02;94301.34;5055064;28;9395;-61
2022/05/25 09:28:20;;;;;;;;;;;;;;;26.86;39.83;94301.34;5052013;28;7031;-60
2022/05/25 09:31:02;;;;;;;;;;;;;;;26.88;40.35;94315.34;5053767;28;7248;-60
2022/05/25 09:34:03;;;;;;;;;;;;;;;26.88;40.04;94314.63;5049481;28;8784;-60
2022/05/25 09:36:42;;;;;;;;;;;;;;;26.87;39.52;94321.41;5053932;28;8777;-60
2022/05/25 09:39:32;;;;;;;;;;;;;;;26.85;39.65;94321.94;5053482;28;7319;-61
2022/05/25 09:42:04;;;;;;;;;;;;;;;26.84;40.04;94316.91;5056635;28;9223;-60
2022/05/25 09:44:32;;;;;;;;;;;;;;;26.85;39.66;94318.41;5038987;28;7214;-60
2022/05/25 09:47:05;;;;;;;;;;;;;;;26.85;40.29;94315.66;5043125;28;8801;-60
2022/05/25 09:49:44;;;;;;;;;;;;;;;26.89;40.47;94327.16;5063321;28;8014;-60
2022/05/25 09:52:48;;;;;;;;;;;;;;;26.88;40.46;94323.63;5050358;28;9081;-61
2022/05/25 09:55:34;;;;;;;;;;;;;;;26.88;40.25;94320.16;5060849;28;8663;-60
2022/05/25 09:58:09;;;;;;;;;;;;;;;26.89;40.40;94321.63;5052381;28;7198;-60
2022/05/25 10:00:55;;;;;;;;;;;;;;;26.90;40.49;94317.63;5045182;28;6948;-60
2022/05/25 10:03:35;;;;;;;;;;;;;;;26.90;40.38;94323.13;5042550;28;9009;-60
2022/05/25 10:06:25;;;;;;;;;;;;;;;26.92;40.58;94320.59;5058628;28;9023;-60
2022/05/25 10:09:15;;;;;;;;;;;;;;;26.92;39.95;94326.13;5046394;28;9040;-60
2022/05/25 10:11:58;;;;;;;;;;;;;;;26.92;39.95;94322.59;5047722;28;9662;-60
2022/05/25 10:14:52;;;;;;;;;;;;;;;26.89;40.29;94319.63;5040759;28;7215;-60
2022/05/25 10:17:47;;;;;;;;;;;;;;;26.92;41.02;94328.88;5047334;28;7252;-60
2022/05/25 10:20:28;;;;;;;;;;;;;;;26.89;40.51;94327.91;5038382;28;7212;-60
2022/05/25 10:23:13;;;;;;;;;;;;;;;26.92;40.25;94331.63;5041387;28;7361;-60
2022/05/25 10:26:10;;;;;;;;;;;;;;;26.94;40.75;94333.88;5058725;28;7424;-60
2022/05/25 10:28:52;;;;;;;;;;;;;;;26.90;41.62;94329.38;5053454;28;7143;-61
2022/05/25 10:37:09;;;;;;;;;;;;;;;26.86;41.27;94328.22;5054099;28;6952;-61
2022/05/25 10:39:39;;;;;;;;;;;;;;;26.85;41.27;94332.22;5047213;28;7510;-60
2022/05/25 10:42:14;;;;;;;;;;;;;;;26.87;41.85;94329.69;5051689;28;7493;-60
2022/05/25 10:45:06;;;;;;;;;;;;;;;26.89;41.13;94327.16;5035570;28;7273;-61
2022/05/25 10:50:57;;;;;;;;;;;;;;;26.94;40.65;94331.09;5054371;28;8963;-61
2022/05/25 10:57:01;;;;;;;;;;;;;;;26.98;40.85;94323.28;5058966;28;6874;-60
2022/05/25 10:59:50;;;;;;;;;;;;;;;26.98;41.15;94329.53;5050506;28;7971;-60
2022/05/25 11:03:02;;;;;;;;;;;;;;;26.97;41.20;94316.28;5058501;28;7031;-60
2022/05/25 11:05:36;;;;;;;;;;;;;;;26.93;40.39;94327.59;4958107;28;8728;-61
2022/05/25 11:08:11;;;;;;;;;;;;;;;26.97;40.64;94330.81;4972252;28;6972;-60
2022/05/25 11:11:13;;;;;;;;;;;;;;;26.98;41.08;94318.50;4977943;28;9076;-59
2022/05/25 11:14:24;;;;;;;;;;;;;;;27.00;41.16;94329.78;4978252;28;8883;-60
2022/05/25 11:17:29;;;;;;;;;;;;;;;26.99;40.70;94319.97;4979199;28;9088;-60
2022/05/25 11:20:15;;;;;;;;;;;;;;;26.98;40.67;94326.78;4996270;28;9083;-60
2022/05/25 11:22:40;;;;;;;;;;;;;;;26.99;40.82;94325.50;4972977;28;7238;-60
2022/05/25 11:25:15;;;;;;;;;;;;;;;26.99;40.10;94328.25;4969012;28;8638;-59
2022/05/25 11:28:03;;;;;;;;;;;;;;;27.00;40.16;94329.78;4988849;28;8563;-60
2022/05/25 11:30:53;;;;;;;;;;;;;;;27.00;40.60;94329.00;4967679;28;9105;-60
2022/05/25 11:33:57;;;;;;;;;;;;;;;27.02;40.03;94332.75;4972154;28;7259;-61
2022/05/25 11:36:43;;;;;;;;;;;;;;;27.03;40.42;94331.50;4958882;28;6988;-61
2022/05/25 11:39:24;;;;;;;;;;;;;;;27.03;41.02;94325.22;4977217;28;6997;-59
2022/05/25 11:42:09;;;;;;;;;;;;;;;27.00;40.37;94334.53;5007741;28;7279;-60
2022/05/25 11:44:56;;;;;;;;;;;;;;;26.95;41.22;94336.09;5035280;28;7391;-62
2022/05/25 11:47:35;;;;;;;;;;;;;;;26.95;41.06;94329.84;5033219;28;7703;-60
2022/05/25 11:50:31;;;;;;;;;;;;;;;26.96;40.46;94326.56;5060582;28;7068;-59
2022/05/25 11:53:15;;;;;;;;;;;;;;;26.96;40.88;94321.03;5059838;28;7237;-59
2022/05/25 11:56:14;;;;;;;;;;;;;;;26.97;41.17;94328.03;5043620;28;9352;-60
2022/05/25 11:59:04;;;;;;;;;;;;;;;26.97;40.66;94328.03;5034369;28;7232;-60
2022/05/25 12:01:33;;;;;;;;;;;;;;;26.98;40.86;94332.31;5035291;28;8756;-60
2022/05/25 12:04:17;;;;;;;;;;;;;;;27.01;41.16;94330.53;5041184;28;7142;-60
2022/05/25 12:07:02;;;;;;;;;;;;;;;27.01;41.00;94322.25;5038769;28;9021;-59
2022/05/25 12:10:11;;;;;;;;;;;;;;;27.03;39.88;94325.97;5054500;28;9286;-59
2022/05/25 12:13:15;;;;;;;;;;;;;;;27.03;40.85;94314.94;5054982;28;9392;-60
2022/05/25 12:15:59;;;;;;;;;;;;;;;27.04;40.05;94321.94;5033744;28;7456;-60
2022/05/25 12:18:45;;;;;;;;;;;;;;;27.08;40.48;94327.91;5057321;28;7316;-59
2022/05/25 12:21:35;;;;;;;;;;;;;;;27.10;39.85;94324.63;5045642;28;7678;-60
2022/05/25 12:24:08;;;;;;;;;;;;;;;27.11;39.85;94324.09;5056250;28;7164;-60
2022/05/25 12:26:39;;;;;;;;;;;;;;;27.12;40.26;94319.34;5033776;28;7251;-60
2022/05/25 12:29:31;;;;;;;;;;;;;;;27.14;40.35;94316.78;5035415;28;7738;-60
2022/05/25 12:31:58;;;;;;;;;;;;;;;27.15;39.65;94332.84;5032995;28;8742;-60
2022/05/25 12:34:30;;;;;;;;;;;;;;;27.16;39.81;94323.28;5045615;28;9552;-60
2022/05/25 12:36:59;;;;;;;;;;;;;;;27.16;39.79;94328.81;5032945;28;9111;-61
2022/05/25 12:39:46;;;;;;;;;;;;;;;27.19;40.06;94324.25;5053826;28;8591;-60
2022/05/25 12:42:25;;;;;;;;;;;;;;;27.18;39.78;94323.50;5059588;28;9115;-60
2022/05/25 12:51:18;;;;;;;;;;;;;;;27.19;40.17;94321.47;5056587;28;7059;-60
2022/05/25 12:53:46;;;;;;;;;;;;;;;27.20;39.89;94325.75;4953780;28;8062;-60
2022/05/25 12:56:21;;;;;;;;;;;;;;;27.23;40.09;94324.72;4949508;28;7237;-60
2022/05/25 12:58:53;;;;;;;;;;;;;;;27.23;40.24;94327.47;4967826;28;9060;-61
2022/05/25 13:01:28;;;;;;;;;;;;;;;27.22;39.64;94328.72;4964501;28;7065;-61
2022/05/25 13:03:54;;;;;;;;;;;;;;;27.22;40.14;94335.00;4953985;28;7309;-60
2022/05/25 13:06:58;;;;;;;;;;;;;;;27.25;39.86;94335.97;4971578;28;9672;-60
2022/05/25 13:09:42;;;;;;;;;;;;;;;27.26;39.96;94338.22;4946949;28;9047;-60
2022/05/25 13:12:41;;;;;;;;;;;;;;;27.29;39.63;94336.41;4951367;28;9566;-61
2022/05/25 13:15:18;;;;;;;;;;;;;;;27.29;39.73;94337.16;4951259;28;9760;-61
2022/05/25 13:17:55;;;;;;;;;;;;;;;27.30;39.68;94341.41;4938675;28;7459;-61
2022/05/25 13:20:26;;;;;;;;;;;;;;;27.29;39.52;94339.19;4939218;28;6864;-60
2022/05/25 13:22:59;;;;;;;;;;;;;;;27.29;39.34;94334.41;4947631;28;7326;-59
2022/05/25 13:25:33;;;;;;;;;;;;;;;27.32;39.54;94333.34;4942345;28;7261;-60
2022/05/25 13:28:25;;;;;;;;;;;;;;;27.36;39.36;94333.81;4937636;28;7100;-60
2022/05/25 13:31:33;;;;;;;;;;;;;;;27.34;40.04;94336.31;4967140;28;7183;-60
2022/05/25 13:34:11;;;;;;;;;;;;;;;27.33;39.56;94334.84;4970015;28;6996;-59
2022/05/25 13:37:03;;;;;;;;;;;;;;;27.38;39.44;94334.03;4985476;28;7282;-60
2022/05/25 13:39:31;;;;;;;;;;;;;;;27.39;39.68;94337.53;4978458;28;7250;-59
2022/05/25 13:42:15;;;;;;;;;;;;;;;27.38;39.52;94339.56;5034995;28;6869;-60
2022/05/25 13:44:50;;;;;;;;;;;;;;;27.40;39.20;94336.28;5038938;28;7170;-60
2022/05/25 13:47:20;;;;;;;;;;;;;;;27.42;39.13;94340.03;5061352;28;9585;-60
2022/05/25 13:49:53;;;;;;;;;;;;;;;27.44;39.69;94334.72;5062304;28;9088;-60
2022/05/25 13:52:21;;;;;;;;;;;;;;;27.46;38.88;94343.22;5055861;28;6973;-60
2022/05/25 13:55:42;;;;;;;;;;;;;;;27.50;39.86;94346.44;5057239;28;9572;-60
2022/05/25 13:58:14;;;;;;;;;;;;;;;27.51;39.69;94342.38;4941102;28;9070;-61
2022/05/25 14:00:46;;;;;;;;;;;;;;;27.54;39.41;94344.09;4947955;28;7277;-59
2022/05/25 14:03:18;;;;;;;;;;;;;;;27.54;39.48;94341.34;4948948;28;9088;-59
2022/05/25 14:05:45;;;;;;;;;;;;;;;27.56;39.11;94341.56;4946380;28;7079;-59
2022/05/25 14:11:24;;;;;;;;;;;;;;;27.56;39.42;94344.31;4942950;28;7477;-60
2022/05/25 14:13:51;;;;;;;;;;;;;;;27.55;39.91;94342.84;4943565;28;6860;-60
2022/05/25 14:16:21;;;;;;;;;;;;;;;27.57;39.32;94343.06;4931514;28;8815;-59
2022/05/25 14:19:05;;;;;;;;;;;;;;;27.57;39.65;94336.78;4935306;28;9014;-60
2022/05/25 14:21:50;;;;;;;;;;;;;;;27.57;39.46;94336.78;4935374;28;6870;-59
2022/05/25 14:24:27;;;;;;;;;;;;;;;27.58;39.55;94344.53;4946734;28;7864;-61
2022/05/25 14:27:18;;;;;;;;;;;;;;;27.59;38.97;94342.53;4935781;28;7242;-60
2022/05/25 14:29:47;;;;;;;;;;;;;;;27.57;39.62;94340.31;4948087;28;9086;-60
2022/05/25 14:32:29;;;;;;;;;;;;;;;27.63;39.09;94337.44;4931520;28;7718;-61